Time;durP1;ratioP1;P1;durP2;ratioP2;P2;SDS_P1;SDS_P2;PMS_P1;PMS_P2;Temp;Humidity;BMP_temperature;BMP_pressure;BME280_temperature;BME280_humidity;BME280_pressure;Samples;Min_cycle;Max_cycle;Signal;HPM_P1;HPM_P2
2022/08/05 00:01:02;;;;;;;6.25;2.90;;;20.60;99.90;;;;;;5004488;28;20041;-65
2022/08/05 00:03:27;;;;;;;9.77;2.72;;;20.60;99.90;;;;;;5005690;28;20037;-65
2022/08/05 00:05:53;;;;;;;5.60;2.40;;;20.60;99.90;;;;;;5008802;28;20103;-65
2022/08/05 00:08:19;;;;;;;5.50;2.60;;;20.50;99.90;;;;;;5007223;28;20461;-65
2022/08/05 00:10:45;;;;;;;5.20;2.42;;;20.50;99.90;;;;;;5001115;28;20048;-65
2022/08/05 00:13:10;;;;;;;8.32;2.60;;;20.50;99.90;;;;;;5007926;28;20139;-66
2022/08/05 00:15:36;;;;;;;6.88;2.75;;;20.50;99.90;;;;;;5005300;28;20046;-65
2022/08/05 00:18:02;;;;;;;8.50;2.90;;;20.50;99.90;;;;;;5005213;28;20089;-66
2022/08/05 00:20:27;;;;;;;7.00;2.22;;;20.50;99.90;;;;;;5006660;28;20037;-65
2022/08/05 00:22:53;;;;;;;6.10;2.33;;;20.40;99.90;;;;;;5005473;28;20126;-66
2022/08/05 00:25:19;;;;;;;4.63;2.10;;;20.50;99.90;;;;;;5008997;28;20034;-66
2022/08/05 00:27:44;;;;;;;4.75;2.60;;;20.40;99.90;;;;;;5003356;28;20041;-65
2022/08/05 00:30:10;;;;;;;4.78;2.40;;;20.40;99.90;;;;;;5008674;28;20061;-66
2022/08/05 00:32:36;;;;;;;4.68;2.45;;;20.40;99.90;;;;;;5006632;28;20037;-65
2022/08/05 00:35:02;;;;;;;5.25;2.70;;;20.40;99.90;;;;;;5003639;28;20041;-66
2022/08/05 00:37:28;;;;;;;6.32;2.85;;;20.40;99.90;;;;;;5006864;28;20049;-66
2022/08/05 00:39:53;;;;;;;6.53;2.40;;;20.40;99.90;;;;;;5002314;28;20042;-66
2022/08/05 00:42:33;;;;;;;6.95;2.70;;;20.40;99.90;;;;;;5001291;28;20049;-66
2022/08/05 00:45:00;;;;;;;6.10;2.50;;;20.40;99.90;;;;;;5009092;28;20038;-66
2022/08/05 00:47:25;;;;;;;4.65;2.60;;;20.30;99.90;;;;;;5000399;28;20057;-66
2022/08/05 00:49:51;;;;;;;5.50;2.60;;;20.30;99.90;;;;;;5004271;28;20441;-66
2022/08/05 00:52:17;;;;;;;6.63;2.42;;;20.30;99.90;;;;;;4999772;28;20088;-65
2022/08/05 00:54:43;;;;;;;4.30;2.53;;;20.30;99.90;;;;;;5001674;28;20061;-66
2022/08/05 00:57:08;;;;;;;5.43;2.63;;;20.20;99.90;;;;;;5008047;28;20033;-65
2022/08/05 00:59:34;;;;;;;5.53;2.50;;;20.20;99.90;;;;;;4994774;28;20061;-64
2022/08/05 01:02:00;;;;;;;5.32;2.70;;;20.20;99.90;;;;;;5004267;28;20045;-66
2022/08/05 01:04:25;;;;;;;5.60;2.45;;;20.20;99.90;;;;;;5004854;28;20512;-65
2022/08/05 01:06:51;;;;;;;6.65;2.53;;;20.10;99.90;;;;;;5006138;28;20046;-65
2022/08/05 01:09:16;;;;;;;4.63;2.08;;;20.20;99.90;;;;;;4999725;28;20449;-66
2022/08/05 01:11:44;;;;;;;4.65;2.45;;;20.20;99.90;;;;;;5000329;28;20049;-66
2022/08/05 01:14:21;;;;;;;7.38;2.53;;;20.10;99.90;;;;;;5003779;28;21274;-65
2022/08/05 01:16:58;;;;;;;6.57;3.03;;;20.10;99.90;;;;;;5000954;28;20046;-66
2022/08/05 01:19:29;;;;;;;4.97;2.30;;;20.10;99.90;;;;;;5003484;28;20386;-66
2022/08/05 01:22:05;;;;;;;6.03;2.65;;;20.10;99.90;;;;;;5007277;28;20042;-66
2022/08/05 01:24:48;;;;;;;7.15;2.72;;;20.10;99.90;;;;;;5000398;28;20052;-66
2022/08/05 01:27:57;;;;;;;4.20;2.22;;;20.10;99.90;;;;;;4996628;28;20038;-66
2022/08/05 01:30:26;;;;;;;5.32;2.08;;;20.00;99.90;;;;;;4990061;28;20061;-63
2022/08/05 01:32:55;;;;;;;5.72;2.60;;;20.00;99.90;;;;;;5000150;28;20064;-66
2022/08/05 01:35:26;;;;;;;4.03;2.40;;;20.10;99.90;;;;;;5006949;28;20034;-65
2022/08/05 01:37:56;;;;;;;4.53;2.60;;;20.00;99.90;;;;;;4998865;28;20097;-64
2022/08/05 01:40:27;;;;;;;7.25;2.53;;;20.00;99.90;;;;;;4998584;28;20042;-65
2022/08/05 01:42:56;;;;;;;5.28;2.47;;;20.00;99.90;;;;;;4996401;28;20049;-66
2022/08/05 01:45:23;;;;;;;7.35;2.60;;;20.00;99.90;;;;;;5001168;28;20425;-62
2022/08/05 01:47:50;;;;;;;7.00;2.35;;;20.00;99.90;;;;;;5001427;28;20050;-66
2022/08/05 01:53:07;;;;;;;3.55;2.13;;;20.00;99.90;;;;;;5079072;27;20127;-64
2022/08/05 01:55:35;;;;;;;6.00;2.60;;;20.00;99.90;;;;;;5055243;27;20037;-64
2022/08/05 01:58:02;;;;;;;5.55;2.97;;;20.00;99.90;;;;;;5068028;28;20059;-64
2022/08/05 02:00:30;;;;;;;7.15;2.80;;;19.90;99.90;;;;;;5047444;28;20059;-61
2022/08/05 02:03:02;;;;;;;4.65;2.55;;;19.90;99.90;;;;;;5074787;28;20048;-64
2022/08/05 02:05:31;;;;;;;4.80;2.55;;;19.90;99.90;;;;;;5062089;28;20033;-64
2022/08/05 02:07:58;;;;;;;4.85;2.60;;;20.00;99.90;;;;;;5063057;27;20093;-64
2022/08/05 02:10:27;;;;;;;5.68;2.67;;;19.90;99.90;;;;;;5045186;27;20033;-64
2022/08/05 02:13:00;;;;;;;6.90;2.55;;;19.90;99.90;;;;;;5063879;27;20045;-64
2022/08/05 02:15:40;;;;;;;5.55;2.50;;;19.90;99.90;;;;;;5068233;27;20029;-63
2022/08/05 02:18:05;;;;;;;6.07;2.40;;;19.90;99.90;;;;;;5076664;27;20135;-64
2022/08/05 02:20:41;;;;;;;6.72;2.88;;;19.80;99.90;;;;;;5045455;28;20123;-64
2022/08/05 02:23:09;;;;;;;4.20;2.30;;;19.90;99.90;;;;;;5076308;27;20368;-65
2022/08/05 02:25:38;;;;;;;4.80;2.35;;;19.80;99.90;;;;;;5059888;28;20131;-64
2022/08/05 02:28:06;;;;;;;6.53;2.47;;;19.80;99.90;;;;;;5047028;27;20041;-65
2022/08/05 02:30:43;;;;;;;5.82;2.47;;;19.80;99.90;;;;;;5042831;27;20120;-63
2022/08/05 02:33:14;;;;;;;6.80;2.70;;;19.80;99.90;;;;;;5063299;28;20383;-64
2022/08/05 02:35:41;;;;;;;6.53;2.45;;;19.80;99.90;;;;;;5061217;28;20045;-64
2022/08/05 02:38:09;;;;;;;4.90;2.20;;;19.80;99.90;;;;;;5060782;27;20037;-64
2022/08/05 02:40:36;;;;;;;5.47;2.40;;;19.80;99.90;;;;;;5087391;27;20029;-64
2022/08/05 02:43:03;;;;;;;6.22;2.45;;;19.80;99.90;;;;;;5061878;27;20093;-63
2022/08/05 02:45:29;;;;;;;6.05;2.15;;;19.80;99.90;;;;;;5080851;27;20395;-64
2022/08/05 02:47:56;;;;;;;4.65;2.00;;;19.70;99.90;;;;;;5060668;28;20048;-64
2022/08/05 02:50:23;;;;;;;6.85;2.53;;;19.70;99.90;;;;;;5062302;27;20040;-62
2022/08/05 02:52:50;;;;;;;5.85;2.40;;;19.70;99.90;;;;;;5062328;27;20447;-64
2022/08/05 02:55:16;;;;;;;6.03;2.60;;;19.80;99.90;;;;;;5056474;27;20064;-64
2022/08/05 02:57:44;;;;;;;7.72;3.08;;;19.70;99.90;;;;;;5064856;27;20063;-64
2022/08/05 03:00:13;;;;;;;4.45;2.42;;;19.70;99.90;;;;;;5043717;27;20049;-64
2022/08/05 03:02:42;;;;;;;6.75;2.50;;;19.70;99.90;;;;;;5071263;27;20086;-63
2022/08/05 03:05:10;;;;;;;6.03;2.45;;;19.70;99.90;;;;;;5029645;28;20044;-60
2022/08/05 03:07:37;;;;;;;5.63;2.67;;;19.70;99.90;;;;;;5048881;27;20033;-64
2022/08/05 03:10:03;;;;;;;8.85;2.55;;;19.60;99.90;;;;;;5048081;28;20041;-64
2022/08/05 03:12:33;;;;;;;7.65;2.92;;;19.60;99.90;;;;;;5046315;27;20044;-64
2022/08/05 03:14:59;;;;;;;4.22;2.63;;;19.60;99.90;;;;;;5030292;28;20455;-61
2022/08/05 03:17:25;;;;;;;6.25;2.42;;;19.60;99.90;;;;;;5031840;28;20213;-64
2022/08/05 03:19:51;;;;;;;5.20;2.80;;;19.60;99.90;;;;;;5048605;28;20041;-63
2022/08/05 03:22:16;;;;;;;5.78;2.60;;;19.50;99.90;;;;;;5031828;27;20491;-62
2022/08/05 03:24:44;;;;;;;7.63;3.00;;;19.50;99.90;;;;;;5052723;27;20052;-64
2022/08/05 03:27:11;;;;;;;4.05;2.58;;;19.50;99.90;;;;;;5047720;27;20415;-65
2022/08/05 03:29:37;;;;;;;6.65;2.85;;;19.50;99.90;;;;;;5027375;28;20506;-61
2022/08/05 03:32:04;;;;;;;4.60;2.70;;;19.50;99.90;;;;;;5049336;27;20045;-62
2022/08/05 03:34:31;;;;;;;4.85;2.63;;;19.50;99.90;;;;;;5048079;27;20491;-64
2022/08/05 03:36:57;;;;;;;5.95;2.60;;;19.50;99.90;;;;;;5045669;28;20044;-63
2022/08/05 03:39:23;;;;;;;6.25;2.80;;;19.40;99.90;;;;;;5047643;27;20528;-64
2022/08/05 03:41:48;;;;;;;4.45;2.42;;;19.40;99.90;;;;;;5046193;28;20676;-65
2022/08/05 03:44:14;;;;;;;5.47;2.60;;;19.40;99.90;;;;;;5061128;28;20402;-64
2022/08/05 03:46:39;;;;;;;6.72;2.88;;;19.40;99.90;;;;;;5050043;28;20116;-63
2022/08/05 03:49:05;;;;;;;5.40;2.60;;;19.40;99.90;;;;;;5029645;28;20063;-62
2022/08/05 03:51:59;;;;;;;6.35;2.72;;;19.40;99.90;;;;;;5048904;28;20128;-64
2022/08/05 03:54:34;;;;;;;4.47;2.75;;;19.40;99.90;;;;;;5034071;27;20452;-64
2022/08/05 03:57:02;;;;;;;8.32;2.90;;;19.30;99.90;;;;;;5046204;27;21688;-63
2022/08/05 03:59:43;;;;;;;6.03;2.90;;;19.30;99.90;;;;;;5028698;28;20036;-64
2022/08/05 04:02:11;;;;;;;4.03;2.60;;;19.30;99.90;;;;;;5029176;28;20077;-64
2022/08/05 04:04:39;;;;;;;4.40;2.83;;;19.30;99.90;;;;;;5050263;28;20036;-64
2022/08/05 04:07:05;;;;;;;7.38;3.10;;;19.30;99.90;;;;;;5046846;27;20417;-64
2022/08/05 04:09:31;;;;;;;4.45;2.63;;;19.30;99.90;;;;;;5046679;28;20033;-64
2022/08/05 04:11:58;;;;;;;5.70;2.60;;;19.30;99.90;;;;;;5049791;27;20041;-64
2022/08/05 04:14:27;;;;;;;8.15;3.30;;;19.30;99.90;;;;;;5051847;27;20029;-65
2022/08/05 04:16:53;;;;;;;4.63;2.70;;;19.30;99.90;;;;;;5048170;28;20097;-64
2022/08/05 04:19:19;;;;;;;7.00;2.78;;;19.30;99.90;;;;;;5045217;28;20033;-64
2022/08/05 04:21:45;;;;;;;6.20;3.05;;;19.30;99.90;;;;;;5030000;28;20055;-64
2022/08/05 04:24:10;;;;;;;5.05;2.50;;;19.20;99.90;;;;;;5030177;28;20052;-64
2022/08/05 04:26:36;;;;;;;6.30;3.15;;;19.30;99.90;;;;;;5034788;28;20048;-61
2022/08/05 04:29:02;;;;;;;7.18;3.13;;;19.30;99.90;;;;;;5038871;28;20514;-65
2022/08/05 04:31:27;;;;;;;7.93;3.10;;;19.20;99.90;;;;;;5058073;27;20044;-64
2022/08/05 04:33:53;;;;;;;5.90;2.92;;;19.20;99.90;;;;;;5028524;28;20041;-64
2022/08/05 04:36:19;;;;;;;9.20;2.90;;;19.20;99.90;;;;;;5045407;28;20033;-64
2022/08/05 04:38:44;;;;;;;4.38;2.70;;;19.20;99.90;;;;;;5043186;28;20475;-62
2022/08/05 04:41:10;;;;;;;4.45;2.72;;;19.20;99.90;;;;;;5025936;27;20169;-65
2022/08/05 04:43:37;;;;;;;4.80;3.20;;;19.20;99.90;;;;;;5047866;28;20037;-64
2022/08/05 04:46:03;;;;;;;7.97;3.10;;;19.20;99.90;;;;;;5043062;28;20041;-70
2022/08/05 04:48:29;;;;;;;6.57;2.75;;;19.20;99.90;;;;;;5044034;28;20045;-68
2022/08/05 04:50:56;;;;;;;5.45;3.00;;;19.20;99.90;;;;;;5048272;28;20376;-70
2022/08/05 04:53:21;;;;;;;7.60;2.75;;;19.20;99.90;;;;;;5047882;28;20033;-64
2022/08/05 04:55:47;;;;;;;4.45;2.47;;;19.20;99.90;;;;;;5026671;28;20464;-65
2022/08/05 04:58:16;;;;;;;5.65;2.35;;;19.20;99.90;;;;;;5043028;28;20398;-65
2022/08/05 05:00:42;;;;;;;6.43;2.70;;;19.20;99.90;;;;;;5038315;28;20051;-65
2022/08/05 05:03:08;;;;;;;4.72;2.70;;;19.20;99.90;;;;;;5107641;27;20041;-66
2022/08/05 05:05:35;;;;;;;6.25;2.42;;;19.20;99.90;;;;;;5042496;27;20045;-66
2022/08/05 05:08:03;;;;;;;5.53;2.75;;;19.20;99.90;;;;;;5042288;28;20461;-65
2022/08/05 05:10:30;;;;;;;6.22;2.55;;;19.20;99.90;;;;;;5038300;28;20082;-67
2022/08/05 05:12:56;;;;;;;5.85;2.80;;;19.20;99.90;;;;;;5040115;28;20456;-67
2022/08/05 05:15:22;;;;;;;6.68;2.80;;;19.20;99.90;;;;;;5041820;28;20037;-66
2022/08/05 05:17:48;;;;;;;6.55;2.80;;;19.20;99.90;;;;;;5028185;28;20120;-67
2022/08/05 05:20:13;;;;;;;3.83;2.60;;;19.20;99.90;;;;;;5033690;27;20070;-64
2022/08/05 05:22:40;;;;;;;6.70;3.03;;;19.20;99.90;;;;;;5038589;28;20036;-66
2022/08/05 05:25:07;;;;;;;7.85;3.10;;;19.20;99.90;;;;;;5040193;28;20036;-64
2022/08/05 05:27:34;;;;;;;4.93;2.90;;;19.20;99.90;;;;;;5031236;28;20034;-67
2022/08/05 05:30:00;;;;;;;6.10;2.65;;;19.20;99.90;;;;;;5045096;28;20033;-63
2022/08/05 05:32:26;;;;;;;6.05;3.00;;;19.10;99.90;;;;;;5043546;28;20037;-66
2022/08/05 05:34:52;;;;;;;5.93;2.72;;;19.10;99.90;;;;;;5049313;27;20049;-67
2022/08/05 05:37:17;;;;;;;5.13;2.80;;;19.10;99.90;;;;;;5028867;28;20612;-67
2022/08/05 05:39:43;;;;;;;6.32;2.90;;;19.10;99.90;;;;;;5042064;27;20033;-67
2022/08/05 05:42:09;;;;;;;5.55;3.00;;;19.00;99.90;;;;;;5043407;27;20048;-66
2022/08/05 05:44:34;;;;;;;5.07;2.80;;;19.00;99.90;;;;;;5029710;28;20048;-64
2022/08/05 05:47:00;;;;;;;5.63;3.08;;;19.00;99.90;;;;;;5047412;28;20125;-66
2022/08/05 05:49:26;;;;;;;5.60;2.90;;;19.00;99.90;;;;;;5029379;28;20047;-67
2022/08/05 05:51:53;;;;;;;7.28;3.22;;;19.00;99.90;;;;;;5045615;27;20045;-67
2022/08/05 05:54:19;;;;;;;6.03;3.00;;;19.00;99.90;;;;;;5047142;28;20033;-64
2022/08/05 05:56:44;;;;;;;4.90;3.10;;;18.90;99.90;;;;;;5029315;28;20033;-64
2022/08/05 05:59:10;;;;;;;4.82;2.78;;;18.90;99.90;;;;;;5046610;28;20325;-67
2022/08/05 06:01:38;;;;;;;6.05;3.10;;;18.90;99.90;;;;;;5046647;28;20044;-67
2022/08/05 06:04:11;;;;;;;10.30;2.90;;;18.90;99.90;;;;;;5047128;27;20112;-67
2022/08/05 06:06:37;;;;;;;4.20;2.67;;;18.90;99.90;;;;;;5023132;28;20077;-67
2022/08/05 06:09:04;;;;;;;8.18;2.97;;;18.90;99.90;;;;;;5046417;28;20061;-67
2022/08/05 06:11:31;;;;;;;4.88;2.78;;;19.00;99.90;;;;;;5029060;28;20524;-67
2022/08/05 06:13:57;;;;;;;5.72;2.80;;;19.00;99.90;;;;;;5027677;28;20041;-66
2022/08/05 06:16:24;;;;;;;6.28;2.92;;;19.00;99.90;;;;;;5029286;28;20048;-63
2022/08/05 06:18:49;;;;;;;8.25;2.70;;;18.90;99.90;;;;;;5046419;28;20029;-66
2022/08/05 06:21:16;;;;;;;5.80;2.97;;;18.90;99.90;;;;;;5046854;28;20563;-65
2022/08/05 06:23:41;;;;;;;4.95;2.90;;;18.90;99.90;;;;;;5047026;28;20406;-65
2022/08/05 06:26:07;;;;;;;7.05;3.25;;;18.90;99.90;;;;;;5028919;28;20047;-67
2022/08/05 06:28:33;;;;;;;3.80;2.78;;;18.90;99.90;;;;;;5046547;28;20038;-67
2022/08/05 06:30:58;;;;;;;5.68;2.97;;;18.80;99.90;;;;;;5046892;28;20032;-67
2022/08/05 06:33:24;;;;;;;4.65;2.70;;;18.90;99.90;;;;;;5046547;28;20536;-66
2022/08/05 06:35:50;;;;;;;6.22;3.33;;;18.90;99.90;;;;;;5045686;28;20025;-64
2022/08/05 06:38:16;;;;;;;4.38;2.75;;;18.90;99.90;;;;;;5029064;28;20045;-66
2022/08/05 06:40:42;;;;;;;6.35;3.00;;;18.90;99.90;;;;;;5030993;28;20502;-64
2022/08/05 06:43:08;;;;;;;5.47;2.78;;;18.90;99.90;;;;;;5055237;28;20045;-67
2022/08/05 06:45:34;;;;;;;6.63;2.90;;;18.90;99.90;;;;;;5049159;28;20517;-67
2022/08/05 06:47:59;;;;;;;4.43;2.80;;;18.90;99.90;;;;;;5031484;28;20048;-64
2022/08/05 06:50:25;;;;;;;5.47;2.60;;;19.00;99.90;;;;;;5049586;28;20041;-67
2022/08/05 06:52:52;;;;;;;6.32;2.97;;;19.00;99.90;;;;;;5049682;28;20045;-67
2022/08/05 06:55:17;;;;;;;4.07;2.50;;;19.10;99.90;;;;;;5049137;28;20044;-67
2022/08/05 06:57:43;;;;;;;5.93;2.90;;;19.10;99.90;;;;;;5030922;28;20037;-67
2022/08/05 07:00:09;;;;;;;3.85;2.47;;;19.10;99.90;;;;;;5030875;28;20074;-66
2022/08/05 07:02:45;;;;;;;7.53;2.63;;;19.20;99.90;;;;;;5031928;28;20044;-67
2022/08/05 07:05:12;;;;;;;4.15;2.10;;;19.30;99.90;;;;;;5031879;28;20044;-66
2022/08/05 07:07:38;;;;;;;5.05;2.25;;;19.30;99.90;;;;;;5049527;28;20162;-67
2022/08/05 07:10:05;;;;;;;3.70;2.13;;;19.40;99.90;;;;;;5032403;27;20057;-67
2022/08/05 07:18:00;;;;;;;3.17;1.88;;;19.60;99.90;;;;;;5027571;28;20041;-66
2022/08/05 07:20:25;;;;;;;4.82;1.88;;;19.70;99.90;;;;;;5015461;28;20044;-67
2022/08/05 07:22:51;;;;;;;4.30;1.88;;;19.80;99.90;;;;;;5049708;28;20473;-63
2022/08/05 07:25:17;;;;;;;5.05;1.85;;;19.90;99.90;;;;;;5049391;28;20398;-67
2022/08/05 07:27:42;;;;;;;4.10;1.92;;;20.00;99.90;;;;;;5047638;28;20061;-67
2022/08/05 07:30:08;;;;;;;4.57;2.20;;;20.00;99.90;;;;;;5049642;28;20037;-65
2022/08/05 07:32:35;;;;;;;3.72;1.83;;;20.10;99.90;;;;;;5049667;28;20453;-65
2022/08/05 07:35:01;;;;;;;3.55;1.60;;;20.20;99.90;;;;;;5031741;28;20068;-65
2022/08/05 07:37:27;;;;;;;4.30;1.80;;;20.30;99.90;;;;;;5048672;28;20475;-65
2022/08/05 07:39:52;;;;;;;4.43;1.67;;;20.30;99.90;;;;;;5049335;28;20025;-65
2022/08/05 07:42:18;;;;;;;4.20;1.77;;;20.40;99.90;;;;;;5049002;28;20457;-65
2022/08/05 07:44:43;;;;;;;3.00;1.83;;;20.50;99.90;;;;;;5064187;27;20124;-62
2022/08/05 07:47:09;;;;;;;2.83;1.33;;;20.50;99.90;;;;;;5030314;28;20047;-65
2022/08/05 07:49:35;;;;;;;7.25;1.98;;;20.60;99.90;;;;;;5031303;28;20502;-65
2022/08/05 07:52:00;;;;;;;2.15;1.30;;;20.60;99.90;;;;;;5031824;28;20037;-65
2022/08/05 07:54:26;;;;;;;2.55;1.42;;;20.70;99.90;;;;;;5049182;28;20040;-62
2022/08/05 07:56:52;;;;;;;3.15;1.30;;;20.80;99.90;;;;;;5048910;28;20449;-65
2022/08/05 07:59:17;;;;;;;3.72;1.50;;;20.80;99.90;;;;;;5048529;28;20037;-65
2022/08/05 08:01:43;;;;;;;3.95;1.40;;;20.80;99.90;;;;;;5060685;27;20037;-65
2022/08/05 08:04:09;;;;;;;2.38;1.42;;;20.90;99.90;;;;;;5030600;28;20093;-65
2022/08/05 08:06:34;;;;;;;3.60;1.48;;;21.00;99.90;;;;;;5048668;28;20078;-65
2022/08/05 08:09:00;;;;;;;1.95;1.30;;;21.00;99.90;;;;;;5030132;28;20040;-65
2022/08/05 08:11:27;;;;;;;2.80;1.35;;;21.10;99.90;;;;;;5046966;28;20080;-65
2022/08/05 08:13:53;;;;;;;3.88;1.65;;;21.10;99.90;;;;;;5049035;28;20495;-65
2022/08/05 08:16:18;;;;;;;2.95;1.40;;;21.20;99.90;;;;;;5048663;28;20065;-63
2022/08/05 08:18:44;;;;;;;2.95;1.33;;;21.20;99.90;;;;;;5048339;27;20085;-66
2022/08/05 08:21:10;;;;;;;2.20;1.20;;;21.20;99.90;;;;;;5048107;28;20455;-66
2022/08/05 08:23:36;;;;;;;5.57;1.70;;;21.20;99.90;;;;;;5015008;28;20445;-65
2022/08/05 08:26:01;;;;;;;3.83;1.30;;;21.20;99.90;;;;;;5048067;28;20379;-65
2022/08/05 08:28:27;;;;;;;2.67;1.40;;;21.30;99.90;;;;;;5048202;28;20037;-65
2022/08/05 08:30:53;;;;;;;4.05;1.40;;;21.30;99.90;;;;;;5048546;28;20056;-64
2022/08/05 08:33:19;;;;;;;2.22;1.40;;;21.40;99.90;;;;;;5043179;27;20037;-63
2022/08/05 08:35:44;;;;;;;3.35;1.42;;;21.50;99.90;;;;;;5048377;28;20033;-65
2022/08/05 08:38:11;;;;;;;2.83;1.45;;;21.60;99.90;;;;;;5063277;27;20041;-65
2022/08/05 08:40:38;;;;;;;2.92;1.50;;;21.60;99.90;;;;;;5048664;28;20041;-63
2022/08/05 08:43:04;;;;;;;3.40;1.73;;;21.60;99.90;;;;;;5047977;28;20045;-64
2022/08/05 08:45:31;;;;;;;2.75;1.38;;;21.60;99.90;;;;;;5028075;28;20116;-65
2022/08/05 08:48:01;;;;;;;2.42;1.00;;;21.70;99.90;;;;;;5070254;27;20045;-65
2022/08/05 08:50:29;;;;;;;1.77;1.02;;;21.80;99.90;;;;;;5048319;28;20068;-65
2022/08/05 08:53:00;;;;;;;3.17;1.20;;;22.00;99.90;;;;;;5047632;28;20052;-65
2022/08/05 08:55:26;;;;;;;2.10;0.95;;;22.20;99.90;;;;;;5046043;28;20045;-65
2022/08/05 08:57:51;;;;;;;2.53;1.00;;;22.50;99.90;;;;;;5047906;28;20059;-63
2022/08/05 09:00:17;;;;;;;1.30;1.10;;;22.70;99.90;;;;;;5035063;28;20041;-63
2022/08/05 09:02:44;;;;;;;2.05;1.13;;;22.80;99.90;;;;;;5047420;28;20032;-63
2022/08/05 09:05:11;;;;;;;2.08;1.10;;;22.80;99.90;;;;;;5030207;28;20045;-63
2022/08/05 09:07:37;;;;;;;4.05;1.50;;;22.70;99.80;;;;;;5047415;28;20044;-63
2022/08/05 09:10:04;;;;;;;1.92;1.30;;;22.70;99.90;;;;;;5048117;28;20116;-64
2022/08/05 09:12:30;;;;;;;1.52;1.10;;;22.60;99.90;;;;;;5029539;27;20491;-64
2022/08/05 09:14:56;;;;;;;1.30;1.10;;;22.60;99.90;;;;;;5047965;28;20091;-63
2022/08/05 09:17:22;;;;;;;2.15;1.10;;;22.70;99.90;;;;;;5047710;28;20060;-63
2022/08/05 09:19:47;;;;;;;2.65;1.00;;;22.70;99.80;;;;;;5047902;28;20029;-63
2022/08/05 09:22:13;;;;;;;2.30;1.00;;;22.80;99.30;;;;;;5047067;28;20033;-63
2022/08/05 09:24:39;;;;;;;3.85;1.20;;;22.80;99.00;;;;;;5047795;28;20073;-63
2022/08/05 09:27:08;;;;;;;2.22;1.10;;;22.80;98.50;;;;;;5029693;28;20140;-63
2022/08/05 09:29:44;;;;;;;1.30;0.80;;;22.70;97.30;;;;;;5029371;28;20045;-63
2022/08/05 09:32:11;;;;;;;0.95;0.80;;;22.50;96.80;;;;;;5060586;27;20488;-63
2022/08/05 09:34:54;;;;;;;1.52;0.90;;;22.40;97.00;;;;;;5029208;28;20048;-63
2022/08/05 09:37:21;;;;;;;1.85;0.90;;;22.30;96.20;;;;;;5060088;28;20137;-63
2022/08/05 09:39:47;;;;;;;2.22;1.00;;;22.30;96.80;;;;;;5047399;28;20033;-64
2022/08/05 09:42:15;;;;;;;2.58;0.85;;;22.50;97.00;;;;;;5046982;28;20096;-63
2022/08/05 09:44:43;;;;;;;1.80;1.00;;;22.80;96.30;;;;;;5026513;28;20045;-63
2022/08/05 09:47:15;;;;;;;0.80;0.80;;;23.10;95.60;;;;;;5046780;28;20399;-63
2022/08/05 09:49:41;;;;;;;1.50;0.82;;;23.40;94.50;;;;;;5029684;28;20356;-63
2022/08/05 09:52:26;;;;;;;1.73;0.98;;;23.40;93.40;;;;;;5028917;28;20041;-63
2022/08/05 09:54:56;;;;;;;2.15;0.90;;;23.60;90.80;;;;;;5046606;28;20037;-63
2022/08/05 09:57:30;;;;;;;1.95;0.80;;;23.80;92.50;;;;;;5046463;28;20451;-64
2022/08/05 10:00:23;;;;;;;0.85;0.60;;;23.70;89.50;;;;;;5043970;28;20060;-63
2022/08/05 10:02:53;;;;;;;0.73;0.70;;;23.70;88.40;;;;;;5041762;28;20526;-63
2022/08/05 10:05:24;;;;;;;1.25;0.73;;;23.90;89.10;;;;;;5045968;28;20079;-63
2022/08/05 10:08:00;;;;;;;2.42;0.90;;;24.20;87.80;;;;;;5046268;28;20033;-64
2022/08/05 10:10:37;;;;;;;5.30;0.93;;;24.50;86.70;;;;;;5057500;28;20049;-63
2022/08/05 10:13:04;;;;;;;1.20;0.75;;;24.80;83.50;;;;;;5047036;27;20037;-64
2022/08/05 10:15:32;;;;;;;1.05;0.70;;;24.90;79.40;;;;;;5030823;27;20037;-64
2022/08/05 10:18:04;;;;;;;2.30;0.90;;;25.00;76.40;;;;;;5032198;28;20069;-63
2022/08/05 10:20:31;;;;;;;2.72;0.68;;;25.30;74.50;;;;;;5032402;28;20088;-63
2022/08/05 10:22:57;;;;;;;1.88;0.80;;;25.40;74.60;;;;;;5050838;28;20037;-64
2022/08/05 10:25:23;;;;;;;2.10;0.73;;;25.60;73.50;;;;;;5014605;28;20169;-64
2022/08/05 10:27:49;;;;;;;0.98;0.68;;;25.60;73.10;;;;;;5025645;28;20045;-64
2022/08/05 10:30:16;;;;;;;1.27;0.90;;;25.70;72.80;;;;;;5037656;28;20152;-63
2022/08/05 10:32:41;;;;;;;3.05;0.88;;;25.70;71.10;;;;;;5067646;28;20074;-64
2022/08/05 10:35:07;;;;;;;1.60;0.80;;;25.90;70.80;;;;;;5037408;27;20184;-64
2022/08/05 10:37:33;;;;;;;1.48;0.77;;;26.00;70.40;;;;;;5032097;28;20370;-64
2022/08/05 10:40:04;;;;;;;0.68;0.60;;;26.00;69.50;;;;;;5031775;28;20045;-64
2022/08/05 10:42:35;;;;;;;1.65;0.70;;;26.00;67.00;;;;;;5042931;28;20593;-64
2022/08/05 10:45:02;;;;;;;;;;;25.90;66.60;;;;;;5046067;27;20044;-64
2022/08/05 10:47:33;;;;;;;2.30;1.00;;;25.90;63.40;;;;;;5047622;28;19923;-64
2022/08/05 10:49:58;;;;;;;;;;;26.00;65.80;;;;;;5048617;28;20033;-63
2022/08/05 10:52:38;;;;;;;1.52;0.77;;;26.10;62.40;;;;;;5058291;27;20419;-64
2022/08/05 10:55:07;;;;;;;0.65;0.60;;;26.30;64.00;;;;;;5041046;27;20044;-64
2022/08/05 10:57:32;;;;;;;1.98;1.00;;;26.40;64.90;;;;;;5021346;28;20086;-64
2022/08/05 11:00:28;;;;;;;2.28;0.75;;;26.50;63.90;;;;;;5035852;28;20572;-64
2022/08/05 11:03:05;;;;;;;0.85;0.60;;;26.70;59.70;;;;;;5043752;28;20042;-64
2022/08/05 11:05:33;;;;;;;0.50;0.50;;;26.80;59.60;;;;;;5046244;28;20101;-63
2022/08/05 11:08:07;;;;;;;1.27;0.70;;;26.80;60.00;;;;;;5029811;28;20187;-64
2022/08/05 11:10:36;;;;;;;1.23;0.80;;;26.70;57.90;;;;;;5027986;28;20534;-64
2022/08/05 11:13:02;;;;;;;1.65;0.55;;;26.70;57.30;;;;;;5030143;28;20049;-64
2022/08/05 11:15:38;;;;;;;1.38;0.55;;;26.60;57.50;;;;;;5048632;27;20530;-64
2022/08/05 11:18:24;;;;;;;1.38;0.80;;;26.70;56.00;;;;;;5048889;28;20044;-64
2022/08/05 11:20:51;;;;;;;1.65;0.73;;;26.80;53.50;;;;;;5049501;28;20069;-64
2022/08/05 11:23:40;;;;;;;2.22;0.80;;;26.90;56.10;;;;;;5047547;28;20037;-64
2022/08/05 11:26:08;;;;;;;1.52;0.60;;;26.90;54.30;;;;;;5049290;27;20081;-64
2022/08/05 11:28:34;;;;;;;0.80;0.60;;;26.80;55.30;;;;;;5049099;28;20555;-64
2022/08/05 11:31:02;;;;;;;1.52;0.70;;;26.60;54.30;;;;;;5070175;27;20120;-64
2022/08/05 11:33:34;;;;;;;1.52;0.85;;;26.60;54.30;;;;;;5047020;28;20060;-64
2022/08/05 11:36:04;;;;;;;0.88;0.60;;;26.70;53.30;;;;;;5031439;28;20041;-64
2022/08/05 11:38:42;;;;;;;2.70;0.70;;;26.60;53.80;;;;;;5030861;28;20079;-64
2022/08/05 11:41:16;;;;;;;1.90;0.80;;;26.40;50.30;;;;;;5049181;28;20049;-64
2022/08/05 11:43:52;;;;;;;1.08;0.60;;;26.20;51.70;;;;;;5063960;28;20062;-64
2022/08/05 11:46:28;;;;;;;1.42;0.70;;;26.10;52.50;;;;;;5049057;28;20449;-64
2022/08/05 11:48:54;;;;;;;1.38;0.63;;;25.90;51.80;;;;;;5031055;28;20521;-63
2022/08/05 11:51:21;;;;;;;0.82;0.70;;;25.70;52.80;;;;;;5048538;28;20072;-63
2022/08/05 11:53:47;;;;;;;0.50;0.45;;;25.60;52.20;;;;;;5049212;28;20102;-63
2022/08/05 11:56:13;;;;;;;0.50;0.50;;;25.50;52.40;;;;;;5049095;28;20076;-64
2022/08/05 11:58:41;;;;;;;1.05;0.60;;;25.40;53.00;;;;;;5048989;28;20029;-63
2022/08/05 12:01:09;;;;;;;0.85;0.50;;;25.30;53.20;;;;;;5031045;28;20041;-63
2022/08/05 12:03:53;;;;;;;3.20;0.60;;;25.20;53.40;;;;;;5047126;28;20460;-63
2022/08/05 12:06:22;;;;;;;2.45;0.57;;;25.20;53.40;;;;;;5048994;28;20129;-63
2022/08/05 12:08:50;;;;;;;4.30;0.98;;;25.50;54.00;;;;;;5048426;28;20082;-64
2022/08/05 12:11:29;;;;;;;1.27;0.57;;;25.60;53.40;;;;;;5048779;28;20065;-64
2022/08/05 12:13:58;;;;;;;0.95;0.60;;;25.70;53.10;;;;;;5027093;28;20040;-64
2022/08/05 12:16:25;;;;;;;0.98;0.63;;;25.70;53.00;;;;;;5048472;28;20052;-63
2022/08/05 12:18:52;;;;;;;0.65;0.65;;;25.70;53.40;;;;;;5048230;28;20066;-64
2022/08/05 12:21:22;;;;;;;0.98;0.57;;;25.70;53.60;;;;;;5048100;28;20090;-64
2022/08/05 12:24:17;;;;;;;1.58;0.55;;;25.80;53.80;;;;;;5047139;28;20048;-64
2022/08/05 12:26:48;;;;;;;2.10;0.57;;;25.90;53.00;;;;;;5043418;28;20076;-63
2022/08/05 12:29:19;;;;;;;1.55;0.63;;;25.90;53.50;;;;;;5048282;28;20033;-64
2022/08/05 12:31:50;;;;;;;2.42;0.93;;;25.80;53.40;;;;;;5046638;28;20188;-64
2022/08/05 12:34:18;;;;;;;2.50;0.80;;;25.60;53.90;;;;;;5063338;28;20048;-64
2022/08/05 12:36:45;;;;;;;1.35;0.70;;;25.40;54.30;;;;;;5045386;28;20037;-63
2022/08/05 12:39:11;;;;;;;1.50;0.70;;;25.30;54.60;;;;;;5047926;28;20084;-64
2022/08/05 12:41:39;;;;;;;0.68;0.52;;;25.20;55.20;;;;;;5039119;27;20036;-63
2022/08/05 12:44:16;;;;;;;0.63;0.60;;;25.10;55.90;;;;;;5027869;28;20743;-64
2022/08/05 12:46:50;;;;;;;1.77;0.50;;;25.20;56.40;;;;;;5105759;27;20052;-64
2022/08/05 12:49:16;;;;;;;1.30;0.60;;;25.30;56.10;;;;;;5062112;28;20511;-64
2022/08/05 12:51:46;;;;;;;1.33;0.60;;;25.30;55.70;;;;;;5042711;27;20045;-63
2022/08/05 12:54:18;;;;;;;0.50;0.50;;;25.30;56.00;;;;;;5047574;28;20041;-64
2022/08/05 12:56:48;;;;;;;2.15;0.68;;;25.20;55.50;;;;;;5047899;28;20033;-64
2022/08/05 12:59:16;;;;;;;1.73;0.70;;;25.30;55.90;;;;;;5047751;28;20049;-64
2022/08/05 13:01:43;;;;;;;1.75;0.60;;;25.30;56.30;;;;;;5043526;27;20041;-64